CheckWX is a tool to help pilots better visualize weather data.  It is not intended as a substitute for an official pre-flight weather briefing.

22:32:35 UTC

KPSN METAR
Palestine Municipal Airport
Palestine, Texas, USA
Current

18 mins ago

KPSN 262215Z AUTO 35007KT 10SM CLR 21/07 A3027 RMK AO2 T02110076
Observed
Mar-26 @ 22:15 UTC
Wind
  • 350° at 7 KTS
Visibility
10 SM
Flight Rules
VFR
Cloud Levels
  • Clear skies
Temperature
21°C / 70°F
Dewpoint
C / 46°F
Humidity
43%
Altimeter
30.27" Hg
Pressure
1025.02 hPa
Previous

38 mins ago

KPSN 262155Z AUTO 02007KT 340V050 10SM CLR 21/07 A3027 RMK AO2 T02130072
Observed
Mar-26 @ 21:55 UTC
Wind
  • 020° at 7 KTS
Visibility
10 SM
Flight Rules
VFR
Cloud Levels
  • Clear skies
Temperature
21°C / 70°F
Dewpoint
C / 45°F
Humidity
40%
Altimeter
30.27" Hg
Pressure
1025.02 hPa
Previous

58 mins ago

KPSN 262135Z AUTO 01004KT 10SM CLR 21/07 A3028 RMK AO2 T02120077
Observed
Mar-26 @ 21:35 UTC
Wind
  • 010° at 4 KTS
Visibility
10 SM
Flight Rules
VFR
Cloud Levels
  • Clear skies
Temperature
21°C / 70°F
Dewpoint
C / 46°F
Humidity
43%
Altimeter
30.28" Hg
Pressure
1025.42 hPa